createdAt,value
2023-01-29T00:01:58.519Z,99512.41
2023-01-29T00:04:25.440Z,99511.06
2023-01-29T00:06:52.282Z,99510.25
2023-01-29T00:09:19.379Z,99508.38
2023-01-29T00:11:46.421Z,99511.06
2023-01-29T00:14:13.746Z,99516.25
2023-01-29T00:16:40.801Z,99518.81
2023-01-29T00:19:07.709Z,99507.88
2023-01-29T00:21:34.725Z,99517.22
2023-01-29T00:24:01.531Z,99507.88
2023-01-29T00:26:28.881Z,99507.94
2023-01-29T00:28:57.487Z,99500.41
2023-01-29T00:31:25.520Z,99504.81
2023-01-29T00:33:53.142Z,99497.19
2023-01-29T00:36:21.690Z,99502.41
2023-01-29T00:38:58.605Z,99503.06
2023-01-29T00:41:49.527Z,99487.03
2023-01-29T00:44:35.314Z,99486.91
2023-01-29T00:47:03.007Z,99485.97
2023-01-29T00:49:30.538Z,99481.81
2023-01-29T00:52:15.876Z,99479.44
2023-01-29T00:54:42.721Z,99469.44
2023-01-29T00:57:09.495Z,99478.75
2023-01-29T00:59:36.308Z,99473.69
2023-01-29T01:02:21.504Z,99478.91
2023-01-29T01:04:48.339Z,99480.69
2023-01-29T01:07:15.071Z,99482.22
2023-01-29T01:10:00.738Z,99489.44
2023-01-29T01:12:28.869Z,99489.94
2023-01-29T01:14:55.764Z,99482.16
2023-01-29T01:17:22.682Z,99469.53
2023-01-29T01:19:49.635Z,99481.25
2023-01-29T01:22:16.757Z,99475.25
2023-01-29T01:24:43.847Z,99481.13
2023-01-29T01:27:10.665Z,99486.91
2023-01-29T01:29:38.004Z,99488.28
2023-01-29T01:32:06.104Z,99495.78
2023-01-29T01:34:33.112Z,99489.56
2023-01-29T01:37:00.014Z,99488.69
2023-01-29T01:39:26.979Z,99478.47
2023-01-29T01:41:54.604Z,99476.00
2023-01-29T01:44:59.505Z,99482.00
2023-01-29T01:47:35.503Z,99483.22
2023-01-29T01:50:11.814Z,99476.22
2023-01-29T01:52:42.079Z,99480.84
2023-01-29T01:55:13.232Z,99469.00
2023-01-29T01:57:42.055Z,99469.69
2023-01-29T02:00:13.323Z,99471.44
2023-01-29T02:03:01.959Z,99473.91
2023-01-29T02:05:49.399Z,99456.25
2023-01-29T02:08:57.094Z,99447.22
2023-01-29T02:11:24.837Z,99457.38
2023-01-29T02:13:53.577Z,99460.56
2023-01-29T02:16:21.927Z,99449.56
2023-01-29T02:18:50.176Z,99440.28
2023-01-29T02:21:30.319Z,99441.53
2023-01-29T02:24:28.057Z,99443.63
2023-01-29T02:27:20.798Z,99441.03
2023-01-29T02:30:08.582Z,99434.19
2023-01-29T02:33:02.501Z,99425.66
2023-01-29T02:35:37.437Z,99426.44
2023-01-29T02:38:31.598Z,99419.13
2023-01-29T02:41:04.775Z,99409.78
2023-01-29T02:43:47.318Z,99416.53
2023-01-29T02:46:30.248Z,99409.69
2023-01-29T02:49:09.548Z,99412.91
2023-01-29T02:52:16.892Z,99399.50
2023-01-29T02:55:16.183Z,99394.69
2023-01-29T02:57:46.442Z,99395.91
2023-01-29T03:00:21.103Z,99389.88
2023-01-29T03:03:06.501Z,99376.41
2023-01-29T03:05:58.198Z,99377.13
2023-01-29T03:08:43.379Z,99378.78
2023-01-29T03:11:13.862Z,99382.81
2023-01-29T03:13:45.481Z,99367.72
2023-01-29T03:16:37.372Z,99366.25
2023-01-29T03:19:36.352Z,99364.94
2023-01-29T03:22:06.008Z,99358.78
2023-01-29T03:25:00.500Z,99356.53
2023-01-29T03:27:51.871Z,99357.13
2023-01-29T03:30:39.046Z,99349.59
2023-01-29T03:33:09.307Z,99351.03
2023-01-29T03:35:43.527Z,99340.75
2023-01-29T03:38:11.842Z,99337.44
2023-01-29T03:40:49.517Z,99333.59
2023-01-29T03:43:33.126Z,99332.63
2023-01-29T03:46:32.912Z,99317.28
2023-01-29T03:49:30.469Z,99312.22
2023-01-29T03:52:15.836Z,99312.22
2023-01-29T03:55:11.132Z,99307.00
2023-01-29T03:57:54.932Z,99294.19
2023-01-29T04:00:29.371Z,99296.13
2023-01-29T04:03:29.153Z,99291.94
2023-01-29T04:06:05.588Z,99294.84
2023-01-29T04:08:38.333Z,99293.84
2023-01-29T04:11:12.371Z,99281.25
2023-01-29T04:13:40.357Z,99282.84
2023-01-29T04:16:12.877Z,99284.47
2023-01-29T04:18:39.827Z,99287.84
2023-01-29T04:21:09.263Z,99280.25
2023-01-29T04:23:36.086Z,99282.31
2023-01-29T04:26:24.760Z,99272.41
2023-01-29T04:28:59.324Z,99275.03
2023-01-29T04:31:33.183Z,99279.25
2023-01-29T04:34:21.746Z,99278.72
2023-01-29T04:37:23.527Z,99275.44
2023-01-29T04:40:03.732Z,99271.81
2023-01-29T04:42:37.471Z,99269.25
2023-01-29T04:45:25.611Z,99269.97
2023-01-29T04:48:19.214Z,99279.09
2023-01-29T04:51:15.430Z,99264.72
2023-01-29T04:53:55.373Z,99264.47
2023-01-29T04:56:24.906Z,99257.56
2023-01-29T04:59:05.201Z,99265.50
2023-01-29T05:01:34.201Z,99255.94
2023-01-29T05:04:09.525Z,99259.34
2023-01-29T05:06:38.109Z,99256.88
2023-01-29T05:09:05.030Z,99245.88
2023-01-29T05:11:35.951Z,99235.81
2023-01-29T05:14:06.795Z,99246.81
2023-01-29T05:16:46.144Z,99247.91
2023-01-29T05:19:16.033Z,99256.28
2023-01-29T05:21:46.810Z,99250.28
2023-01-29T05:24:25.680Z,99252.03
2023-01-29T05:27:13.405Z,99244.22
2023-01-29T05:29:45.908Z,99257.09
2023-01-29T05:32:13.282Z,99253.69
2023-01-29T05:34:40.069Z,99253.69
2023-01-29T05:37:07.159Z,99257.88
2023-01-29T05:39:34.052Z,99264.63
2023-01-29T05:42:00.847Z,99257.03
2023-01-29T05:44:27.767Z,99256.28
2023-01-29T05:46:54.796Z,99250.13
2023-01-29T05:49:22.565Z,99258.41
2023-01-29T05:51:49.387Z,99258.41
2023-01-29T05:54:16.232Z,99262.69
2023-01-29T05:56:43.115Z,99259.19
2023-01-29T05:59:09.926Z,99260.16
2023-01-29T06:01:37.388Z,99255.03
2023-01-29T06:04:04.299Z,99247.63
2023-01-29T06:06:31.179Z,99265.69
2023-01-29T06:08:58.029Z,99268.44
2023-01-29T06:11:25.258Z,99263.91
2023-01-29T06:13:52.148Z,99269.66
2023-01-29T06:16:19.053Z,99256.28
2023-01-29T06:18:46.031Z,99262.19
2023-01-29T06:21:14.394Z,99264.63
2023-01-29T06:23:41.737Z,99254.78
2023-01-29T06:26:11.918Z,99247.06
2023-01-29T06:28:39.031Z,99240.22
2023-01-29T06:31:37.192Z,99241.22
2023-01-29T06:33:55.000Z,99241.09
2023-01-29T06:36:21.932Z,99240.47
2023-01-29T06:38:48.764Z,99243.44
2023-01-29T06:41:20.582Z,99243.19
2023-01-29T06:43:47.947Z,99233.78
2023-01-29T06:46:14.824Z,99242.16
2023-01-29T06:48:41.789Z,99237.69
2023-01-29T06:51:10.237Z,99234.41
2023-01-29T06:53:39.256Z,99243.56
2023-01-29T06:56:07.386Z,99239.25
2023-01-29T06:58:38.109Z,99240.25
2023-01-29T07:01:10.517Z,99227.59
2023-01-29T07:03:37.650Z,99222.19
2023-01-29T07:06:05.400Z,99221.47
2023-01-29T07:08:32.252Z,99207.28
2023-01-29T07:11:01.624Z,99211.59
2023-01-29T07:13:29.530Z,99204.50
2023-01-29T07:16:03.369Z,99197.13
2023-01-29T07:18:31.038Z,99201.06
2023-01-29T07:20:58.384Z,99214.19
2023-01-29T07:23:25.351Z,99210.91
2023-01-29T07:25:52.295Z,99210.06
2023-01-29T07:28:20.665Z,99216.00
2023-01-29T07:30:47.643Z,99208.38
2023-01-29T07:33:14.634Z,99207.59
2023-01-29T07:35:43.329Z,99204.28
2023-01-29T07:38:11.392Z,99202.66
2023-01-29T07:40:38.443Z,99204.50
2023-01-29T07:43:08.027Z,99208.13
2023-01-29T07:45:38.951Z,99199.69
2023-01-29T07:48:07.692Z,99200.59
2023-01-29T07:50:35.474Z,99200.59
2023-01-29T07:53:03.359Z,99208.34
2023-01-29T07:55:30.950Z,99196.38
2023-01-29T07:58:02.384Z,99196.59
2023-01-29T08:04:17.403Z,99173.00
2023-01-29T08:06:44.323Z,99170.31
2023-01-29T08:09:11.127Z,99179.53
2023-01-29T08:11:38.031Z,99186.34
2023-01-29T08:14:04.870Z,99185.47
2023-01-29T08:16:31.735Z,99178.69
2023-01-29T08:18:58.666Z,99169.38
2023-01-29T08:21:57.615Z,99162.91
2023-01-29T08:24:31.247Z,99162.84
2023-01-29T08:27:08.678Z,99156.03
2023-01-29T08:29:36.189Z,99154.53
2023-01-29T08:32:12.821Z,99163.56
2023-01-29T08:34:39.648Z,99152.72
2023-01-29T08:37:06.402Z,99151.97
2023-01-29T08:39:34.418Z,99150.41
2023-01-29T08:42:01.344Z,99152.09
2023-01-29T08:44:28.156Z,99157.03
2023-01-29T08:46:55.058Z,99163.72
2023-01-29T08:49:21.819Z,99170.63
2023-01-29T08:51:48.699Z,99166.47
2023-01-29T08:54:15.551Z,99164.84
2023-01-29T08:56:42.357Z,99154.56
2023-01-29T08:59:10.440Z,99146.25
2023-01-29T09:01:37.311Z,99147.81
2023-01-29T09:04:04.186Z,99140.44
2023-01-29T09:06:31.116Z,99141.56
2023-01-29T09:08:57.838Z,99138.16
2023-01-29T09:11:24.710Z,99137.22
2023-01-29T09:13:51.538Z,99133.91
2023-01-29T09:16:18.393Z,99140.59
2023-01-29T09:18:45.243Z,99141.38
2023-01-29T09:21:12.064Z,99142.78
2023-01-29T09:23:38.910Z,99141.81
2023-01-29T09:26:08.156Z,99142.06
2023-01-29T09:28:35.159Z,99132.78
2023-01-29T09:31:03.249Z,99140.44
2023-01-29T09:33:31.076Z,99138.03
2023-01-29T09:35:57.999Z,99127.91
2023-01-29T09:38:24.788Z,99111.84
2023-01-29T09:41:04.607Z,99109.66
2023-01-29T09:43:48.346Z,99102.03
2023-01-29T09:46:26.966Z,99097.47
2023-01-29T09:49:02.617Z,99095.00
2023-01-29T09:51:41.748Z,99097.78
2023-01-29T09:54:11.193Z,99096.88
2023-01-29T09:56:38.040Z,99095.25
2023-01-29T09:59:04.954Z,99090.28
2023-01-29T10:01:53.673Z,99086.50
2023-01-29T10:04:45.957Z,99084.47
2023-01-29T10:07:12.727Z,99076.78
2023-01-29T10:10:02.447Z,99076.78
2023-01-29T10:12:36.813Z,99068.38
2023-01-29T10:15:24.995Z,99059.59
2023-01-29T10:17:54.383Z,99064.78
2023-01-29T10:20:39.974Z,99062.59
2023-01-29T10:23:06.754Z,99049.44
2023-01-29T10:25:40.784Z,99050.56
2023-01-29T10:28:55.842Z,99040.72
2023-01-29T10:31:47.531Z,99026.41
2023-01-29T10:34:43.272Z,99017.19
2023-01-29T10:37:18.748Z,99005.34
2023-01-29T10:39:46.254Z,98995.91
2023-01-29T10:42:26.678Z,98992.66
2023-01-29T10:45:41.523Z,98995.31
2023-01-29T10:48:08.259Z,98981.81
2023-01-29T10:51:02.045Z,98983.00
2023-01-29T10:53:34.981Z,98977.84
2023-01-29T10:56:22.681Z,98982.94
2023-01-29T10:59:01.661Z,98977.75
2023-01-29T11:01:28.756Z,98974.19
2023-01-29T11:04:00.921Z,98976.13
2023-01-29T11:06:34.163Z,98983.91
2023-01-29T11:09:37.038Z,98967.81
2023-01-29T11:23:06.753Z,98953.88
2023-01-29T11:26:14.080Z,98957.09
2023-01-29T11:28:51.426Z,98959.31
2023-01-29T11:31:21.350Z,98959.25
2023-01-29T11:33:50.741Z,98955.06
2023-01-29T11:36:28.393Z,98948.56
2023-01-29T11:39:13.630Z,98953.00
2023-01-29T11:41:57.904Z,98950.50
2023-01-29T11:44:41.273Z,98936.38
2023-01-29T11:47:17.569Z,98950.84
2023-01-29T11:49:51.589Z,98945.88
2023-01-29T11:52:21.980Z,98940.91
2023-01-29T11:54:57.510Z,98930.44
2023-01-29T11:57:35.359Z,98944.75
2023-01-29T12:00:18.299Z,98936.25
2023-01-29T12:03:14.301Z,98933.84
2023-01-29T12:05:53.771Z,98940.03
2023-01-29T12:08:22.975Z,98939.19
2023-01-29T12:10:50.007Z,98928.19
2023-01-29T12:13:27.924Z,98936.16
2023-01-29T12:16:18.870Z,98922.75
2023-01-29T12:18:51.745Z,98916.91
2023-01-29T12:21:22.131Z,98921.19
2023-01-29T12:24:13.479Z,98925.44
2023-01-29T12:27:06.203Z,98923.63
2023-01-29T12:30:16.815Z,98919.41
2023-01-29T12:32:57.215Z,98911.84
2023-01-29T12:35:46.062Z,98923.19
2023-01-29T12:38:23.282Z,98918.97
2023-01-29T12:40:55.462Z,98910.44
2023-01-29T12:43:35.898Z,98918.19
2023-01-29T12:46:04.572Z,98918.78
2023-01-29T12:48:35.371Z,98924.53
2023-01-29T12:51:10.659Z,98916.91
2023-01-29T12:54:03.551Z,98916.91
2023-01-29T12:56:37.048Z,98911.78
2023-01-29T12:59:29.234Z,98914.50
2023-01-29T13:02:06.025Z,98925.34
2023-01-29T13:04:40.534Z,98915.09
2023-01-29T13:07:14.171Z,98916.59
2023-01-29T13:09:46.753Z,98920.06
2023-01-29T13:12:20.769Z,98912.53
2023-01-29T13:15:21.755Z,98910.31
2023-01-29T13:17:57.949Z,98910.97
2023-01-29T13:20:30.253Z,98900.88
2023-01-29T13:23:04.655Z,98901.63
2023-01-29T13:25:31.460Z,98896.59
2023-01-29T13:27:58.332Z,98892.34
2023-01-29T13:30:31.359Z,98892.50
2023-01-29T13:33:11.383Z,98898.34
2023-01-29T13:35:45.219Z,98895.19
2023-01-29T13:38:28.296Z,98896.22
2023-01-29T13:41:01.309Z,98897.63
2023-01-29T13:43:35.079Z,98894.13
2023-01-29T13:46:19.179Z,98894.88
2023-01-29T13:48:50.005Z,98889.69
2023-01-29T13:51:22.963Z,98884.63
2023-01-29T13:54:03.757Z,98887.97
2023-01-29T13:56:33.170Z,98879.34
2023-01-29T13:59:05.515Z,98881.06
2023-01-29T14:01:47.476Z,98875.88
2023-01-29T14:04:25.523Z,98872.94
2023-01-29T14:07:06.549Z,98871.06
2023-01-29T14:09:39.185Z,98876.91
2023-01-29T14:12:24.571Z,98868.53
2023-01-29T14:15:16.015Z,98880.94
2023-01-29T14:18:03.337Z,98862.78
2023-01-29T14:20:45.482Z,98863.50
2023-01-29T14:23:28.848Z,98860.84
2023-01-29T14:25:57.133Z,98853.84
2023-01-29T14:28:28.609Z,98850.41
2023-01-29T14:30:55.976Z,98852.88
2023-01-29T14:33:36.990Z,98847.03
2023-01-29T14:36:14.955Z,98839.16
2023-01-29T14:38:51.073Z,98849.44
2023-01-29T14:41:39.605Z,98855.56
2023-01-29T14:44:43.904Z,98849.44
2023-01-29T14:47:22.515Z,98856.03
2023-01-29T14:49:56.682Z,98847.56
2023-01-29T14:52:30.368Z,98856.06
2023-01-29T14:55:01.108Z,98848.47
2023-01-29T14:57:31.584Z,98848.34
2023-01-29T15:00:02.282Z,98853.44
2023-01-29T15:02:38.521Z,98844.91
2023-01-29T15:05:11.502Z,98838.31
2023-01-29T15:07:59.662Z,98848.34
2023-01-29T15:11:11.084Z,98843.47
2023-01-29T15:13:56.710Z,98838.38
2023-01-29T15:16:29.326Z,98842.47
2023-01-29T15:19:12.419Z,98844.06
2023-01-29T15:22:03.277Z,98849.97
2023-01-29T15:24:30.169Z,98837.88
2023-01-29T15:26:57.389Z,98841.53
2023-01-29T15:29:27.536Z,98841.66
2023-01-29T15:31:56.290Z,98839.94
2023-01-29T15:34:23.706Z,98849.16
2023-01-29T15:36:50.979Z,98853.31
2023-01-29T15:39:23.703Z,98848.53
2023-01-29T15:42:04.339Z,98844.59
2023-01-29T15:44:31.353Z,98842.06
2023-01-29T15:47:01.371Z,98850.47
2023-01-29T15:49:34.052Z,98843.56
2023-01-29T15:52:06.227Z,98844.41
2023-01-29T15:54:35.011Z,98842.72
2023-01-29T15:57:03.561Z,98833.53
2023-01-29T15:59:35.684Z,98835.34
2023-01-29T16:02:40.155Z,98824.09
2023-01-29T16:05:13.572Z,98827.25
2023-01-29T16:07:41.019Z,98827.63
2023-01-29T16:10:16.853Z,98823.50
2023-01-29T16:12:47.411Z,98810.94
2023-01-29T16:15:21.801Z,98802.66
2023-01-29T16:17:48.785Z,98809.91
2023-01-29T16:20:34.611Z,98806.72
2023-01-29T16:23:01.653Z,98812.75
2023-01-29T16:25:30.518Z,98809.38
2023-01-29T16:27:58.775Z,98816.56
2023-01-29T16:30:28.019Z,98818.31
2023-01-29T16:33:02.579Z,98814.75
2023-01-29T16:35:29.820Z,98810.81
2023-01-29T16:38:03.457Z,98811.41
2023-01-29T16:40:33.927Z,98810.22
2023-01-29T16:43:41.999Z,98803.22
2023-01-29T16:46:34.739Z,98799.66
2023-01-29T16:49:02.658Z,98804.31
2023-01-29T16:51:36.624Z,98810.16
2023-01-29T16:54:19.227Z,98810.34
2023-01-29T16:56:48.383Z,98806.69
2023-01-29T16:59:38.665Z,98796.88
2023-01-29T17:02:22.922Z,98800.97
2023-01-29T17:04:52.682Z,98789.97
2023-01-29T17:07:22.409Z,98794.00
2023-01-29T17:10:02.366Z,98786.41
2023-01-29T17:12:32.465Z,98784.59
2023-01-29T17:15:02.546Z,98777.78
2023-01-29T17:17:36.226Z,98787.78
2023-01-29T17:20:13.998Z,98770.28
2023-01-29T17:22:41.179Z,98769.38
2023-01-29T17:25:12.976Z,98771.00
2023-01-29T17:27:45.284Z,98777.66
2023-01-29T17:30:17.199Z,98767.63
2023-01-29T17:32:47.353Z,98765.88
2023-01-29T17:35:16.243Z,98765.13
2023-01-29T17:37:44.367Z,98773.66
2023-01-29T17:40:31.448Z,98773.84
2023-01-29T17:42:58.253Z,98779.50
2023-01-29T17:45:25.248Z,98765.88
2023-01-29T17:47:52.102Z,98774.50
2023-01-29T17:50:25.827Z,98768.03
2023-01-29T17:52:53.838Z,98767.94
2023-01-29T17:55:20.944Z,98769.66
2023-01-29T17:57:47.757Z,98769.44
2023-01-29T18:00:22.625Z,98766.97
2023-01-29T18:02:49.834Z,98765.34
2023-01-29T18:05:18.447Z,98771.19
2023-01-29T18:07:47.386Z,98758.50
2023-01-29T18:10:19.536Z,98760.31
2023-01-29T18:12:46.596Z,98761.22
2023-01-29T18:15:14.170Z,98754.63
2023-01-29T18:17:41.510Z,98747.03
2023-01-29T18:20:26.430Z,98758.09
2023-01-29T18:22:53.514Z,98752.00
2023-01-29T18:25:20.997Z,98751.19
2023-01-29T18:27:48.114Z,98748.72
2023-01-29T18:30:15.696Z,98753.31
2023-01-29T18:32:42.688Z,98748.94
2023-01-29T18:35:09.954Z,98739.41
2023-01-29T18:37:37.041Z,98744.59
2023-01-29T18:40:05.479Z,98740.31
2023-01-29T18:42:33.617Z,98742.66
2023-01-29T18:45:00.738Z,98736.88
2023-01-29T18:47:28.152Z,98756.97
2023-01-29T18:49:55.408Z,98755.19
2023-01-29T18:52:22.750Z,98741.66
2023-01-29T18:54:51.670Z,98746.00
2023-01-29T18:58:27.338Z,98741.03
2023-01-29T19:00:06.125Z,98741.22
2023-01-29T19:02:33.466Z,98742.16
2023-01-29T19:05:00.492Z,98736.88
2023-01-29T19:07:27.816Z,98745.41
2023-01-29T19:09:54.775Z,98731.00
2023-01-29T19:12:22.547Z,98735.31
2023-01-29T19:14:49.297Z,98726.00
2023-01-29T19:17:16.197Z,98725.03
2023-01-29T19:19:43.001Z,98727.44
2023-01-29T19:22:09.789Z,98722.25
2023-01-29T19:24:39.057Z,98713.63
2023-01-29T19:27:06.775Z,98718.69
2023-01-29T19:29:34.064Z,98712.94
2023-01-29T19:32:00.924Z,98711.41
2023-01-29T19:34:27.804Z,98709.06
2023-01-29T19:36:54.698Z,98705.72
2023-01-29T19:39:21.540Z,98707.44
2023-01-29T19:41:48.383Z,98705.72
2023-01-29T19:44:15.174Z,98711.63
2023-01-29T19:46:42.032Z,98708.13
2023-01-29T19:49:10.668Z,98708.84
2023-01-29T19:51:37.581Z,98706.25
2023-01-29T19:54:04.624Z,98702.06
2023-01-29T19:56:31.419Z,98690.28
2023-01-29T19:58:58.286Z,98698.81
2023-01-29T20:01:25.451Z,98698.03
2023-01-29T20:03:52.242Z,98704.00
2023-01-29T20:06:23.568Z,98698.81
2023-01-29T20:08:50.436Z,98701.31
2023-01-29T20:11:20.011Z,98698.81
2023-01-29T20:13:48.679Z,98696.22
2023-01-29T20:16:16.610Z,98690.28
2023-01-29T20:18:43.935Z,98683.41
2023-01-29T20:21:12.957Z,98674.78
2023-01-29T20:23:40.082Z,98678.03
2023-01-29T20:26:09.050Z,98678.03
2023-01-29T20:28:36.534Z,98666.03
2023-01-29T20:31:05.192Z,98661.94
2023-01-29T20:33:32.354Z,98652.69
2023-01-29T20:36:01.990Z,98648.41
2023-01-29T20:38:31.798Z,98652.56
2023-01-29T20:41:10.434Z,98647.69
2023-01-29T20:43:37.373Z,98642.41
2023-01-29T20:46:04.973Z,98644.78
2023-01-29T20:48:33.155Z,98644.84
2023-01-29T20:51:08.146Z,98639.06
2023-01-29T20:53:35.651Z,98647.50
2023-01-29T20:56:04.605Z,98637.34
2023-01-29T20:58:31.773Z,98638.31
2023-01-29T21:00:58.662Z,98639.88
2023-01-29T21:03:25.553Z,98637.34
2023-01-29T21:05:52.404Z,98647.38
2023-01-29T21:08:19.132Z,98633.78
2023-01-29T21:10:48.772Z,98633.03
2023-01-29T21:13:15.532Z,98639.06
2023-01-29T21:15:44.870Z,98642.41
2023-01-29T21:18:11.908Z,98640.69
2023-01-29T21:20:38.802Z,98627.09
2023-01-29T21:23:07.200Z,98630.47
2023-01-29T21:25:35.136Z,98621.16
2023-01-29T21:28:04.326Z,98612.72
2023-01-29T21:30:31.643Z,98612.09
2023-01-29T21:32:58.564Z,98611.06
2023-01-29T21:35:25.505Z,98613.63
2023-01-29T21:37:52.408Z,98630.66
2023-01-29T21:40:21.208Z,98619.69
2023-01-29T21:43:07.112Z,98628.00
2023-01-29T21:45:35.681Z,98627.09
2023-01-29T21:48:02.569Z,98622.03
2023-01-29T21:50:29.799Z,98615.25
2023-01-29T21:52:56.822Z,98619.38
2023-01-29T21:55:24.279Z,98623.66
2023-01-29T21:57:52.319Z,98618.75
2023-01-29T22:00:19.606Z,98606.81
2023-01-29T22:02:46.795Z,98608.53
2023-01-29T22:05:19.207Z,98609.34
2023-01-29T22:07:47.799Z,98612.09
2023-01-29T22:10:16.262Z,98612.09
2023-01-29T22:12:44.587Z,98605.38
2023-01-29T22:15:12.537Z,98608.63
2023-01-29T22:17:41.329Z,98608.63
2023-01-29T22:20:13.121Z,98605.03
2023-01-29T22:22:40.158Z,98598.47
2023-01-29T22:25:07.480Z,98588.03
2023-01-29T22:27:34.631Z,98586.41
2023-01-29T22:30:01.961Z,98582.06
2023-01-29T22:32:32.484Z,98581.25
2023-01-29T22:34:59.550Z,98571.06
2023-01-29T22:37:26.598Z,98571.91
2023-01-29T22:39:53.381Z,98566.94
2023-01-29T22:42:20.797Z,98559.22
2023-01-29T22:44:48.715Z,98553.38
2023-01-29T22:47:16.132Z,98547.56
2023-01-29T22:49:45.520Z,98544.22
2023-01-29T22:52:12.755Z,98537.47
2023-01-29T22:54:41.318Z,98543.91
2023-01-29T22:57:11.524Z,98540.69
2023-01-29T22:59:38.792Z,98545.66
2023-01-29T23:02:06.620Z,98541.38
2023-01-29T23:04:33.774Z,98536.22
2023-01-29T23:07:00.760Z,98537.03
2023-01-29T23:09:27.631Z,98519.22
2023-01-29T23:11:54.380Z,98524.41
2023-01-29T23:14:21.263Z,98525.25
2023-01-29T23:16:48.013Z,98521.81
2023-01-29T23:19:14.790Z,98522.66
2023-01-29T23:21:41.708Z,98520.19
2023-01-29T23:24:09.693Z,98510.88
2023-01-29T23:26:54.791Z,98515.00
2023-01-29T23:29:21.870Z,98511.41
2023-01-29T23:31:49.143Z,98504.53
2023-01-29T23:34:16.123Z,98508.88
2023-01-29T23:36:43.451Z,98497.81
2023-01-29T23:39:10.989Z,98502.97
2023-01-29T23:41:37.753Z,98502.97
2023-01-29T23:44:04.774Z,98497.88
2023-01-29T23:46:31.882Z,98498.91
2023-01-29T23:48:58.953Z,98488.06
2023-01-29T23:51:26.029Z,98491.41
2023-01-29T23:53:53.149Z,98482.88
2023-01-29T23:56:20.018Z,98476.97
2023-01-29T23:58:47.248Z,98477.03
